Airfield :
LOGIN :

Register | Disclaimer

   EN    FR    IT 

 










Legend :    VFR   Marginal VFR   IFR   Intensive IFR   Very Intensive IFR
Visi :
Ceiling :
>= 8 km
>= 3000ft
5 to 8 km
1000 to 3000 ft
1500m to 5 km
500 to 1000 ft
800 to 1500m
200 to 500 ft
< 800m
< 200 ft
Symbols :   Thunderstorms  Fog  Heavy snow  Heavy precipitations  Wind > 20 kt
SIGMETs :     Misc.  Thunderstorms  Icing  Turbulence  Mountain Waves  Volcanic Ashes






- Airport Elevation : 386 ft
- IATA code : QOE


ETNN - Nörvenich Airforce Base

CURRENT METAR :
  • 190620Z 33005KT 9000 SCT007 SCT035 BKN050 15/14 Q1016 BLU BLU

EXPIRED METARs :
  • 190520Z 31004KT 8000 SCT006 SCT035 BKN050 15/14 Q1015 BLU BLU
  • 190420Z 30005KT 6000 FEW005 BKN050 15/14 Q1014 WHT
  • 190342Z 35004KT 5000 BR FEW005 SCT013 BKN046 15/14 Q1014 WHT
  • 190320Z 36006KT 5000 BR SCT005 BKN013 15/14 Q1014 GRN
  • 190220Z 34008KT 4000 BR BKN005 15/14 Q1013 YLO

TAF TAF ETNN
Valid from the 19 at 05:00 until the 19 at 14:00 UTC


190405Z 1905/1914 29005KT 5000 BR SCT012 BKN030
TEMPO 1905/1906 32005KT 4000 -DZ SCT005 BKN012
BECMG 1906/1908 01007KT 9999 NSW SCT020 BKN050



MET'MAP, your aeronautical weather chart ! - Copyright ORBIFLY December 2007 - Disclaimer

ORBIFLY MET'MAP TEAM :

Programming & Development : Alexandra Zaïnal
Original concept : Baudouin d'Aumeries
Technical & hardware support : Manuel Goepfert
Assistance : Marc-Olivier Méhu




SOURCES & CREDITS :

   NOAA